Terminal Aerodrome Forecast
Issued by NWS Jackson, KY

Home | Current Version | Previous Version | Text Only | Print | Product List | Glossary On
Versions: 1 2 3 4 5 6 7 8 9 10 11 12 13 14 15
000
FTUS43 KJKL 211700
TAFJKL
TAF
KJKL 211736Z 2118/2218 25005KT P6SM VCSH BKN016 BKN025
     FM212000 27008G15KT P6SM VCSH BKN025 BKN035
     FM212100 29008G17KT P6SM SCT025 SCT035
     FM212200 29006KT P6SM SKC
     FM220900 VRB03KT P6SM BKN007
     FM221600 VRB03KT P6SM SCT015=

USA.gov is the U.S. government's official web portal to all federal, state and local government web resources and services.